Time;durP1;ratioP1;P1;durP2;ratioP2;P2;SDS_P1;SDS_P2;PMS_P1;PMS_P2;Temp;Humidity;BMP_temperature;BMP_pressure;BME280_temperature;BME280_humidity;BME280_pressure;Samples;Min_cycle;Max_cycle;Signal;HPM_P1;HPM_P2
2021/01/09 00:03:15;;;;;;;110.93;44.97;;;;;;;0.77;100.00;100285.20;10272862;86;21118;-77
2021/01/09 00:18:19;;;;;;;100.50;42.25;;;;;;;0.86;100.00;100286.95;10283184;86;21066;-76
2021/01/09 00:33:24;;;;;;;97.08;40.85;;;;;;;0.90;100.00;100284.60;10274633;86;21086;-76
2021/01/09 00:48:28;;;;;;;105.47;42.30;;;;;;;0.76;100.00;100278.34;10276675;86;21040;-76
2021/01/09 01:03:32;;;;;;;96.05;41.37;;;;;;;0.89;100.00;100294.58;10274384;86;22171;-76
2021/01/09 01:18:36;;;;;;;97.25;40.28;;;;;;;1.07;100.00;100298.86;10294715;86;21653;-76
2021/01/09 01:33:41;;;;;;;104.67;45.00;;;;;;;1.06;100.00;100303.64;10321043;86;21034;-76
2021/01/09 01:48:46;;;;;;;86.00;36.77;;;;;;;0.99;100.00;100303.09;10319439;86;21807;-76
2021/01/09 02:03:50;;;;;;;97.67;36.53;;;;;;;1.00;100.00;100300.05;10319536;86;21167;-76
2021/01/09 02:18:56;;;;;;;102.15;39.63;;;;;;;0.97;100.00;100296.33;10300545;86;21058;-76
2021/01/09 02:34:02;;;;;;;94.03;35.20;;;;;;;1.12;100.00;100285.70;10269355;86;21101;-75
2021/01/09 02:49:08;;;;;;;89.87;36.13;;;;;;;1.02;100.00;100296.09;10265857;86;21621;-76
2021/01/09 03:04:12;;;;;;;88.62;34.88;;;;;;;0.98;100.00;100300.59;10267437;85;21461;-76
2021/01/09 03:19:16;;;;;;;91.97;36.75;;;;;;;0.83;100.00;100284.06;10288013;86;21133;-75
2021/01/09 03:34:20;;;;;;;89.35;34.67;;;;;;;0.75;100.00;100282.30;10308255;86;21584;-76
2021/01/09 03:49:25;;;;;;;85.60;32.67;;;;;;;0.84;100.00;100274.12;10312674;86;21384;-76
2021/01/09 04:04:29;;;;;;;93.10;32.90;;;;;;;0.98;100.00;100288.97;10306703;86;21108;-76
2021/01/09 04:19:33;;;;;;;104.35;37.30;;;;;;;0.79;100.00;100293.72;10283418;85;21275;-76
2021/01/09 04:34:37;;;;;;;99.45;36.23;;;;;;;0.73;100.00;100295.76;10267814;85;21093;-76
2021/01/09 04:49:42;;;;;;;104.05;35.98;;;;;;;0.79;100.00;100304.48;10299764;85;21121;-76
2021/01/09 05:04:48;;;;;;;111.85;41.10;;;;;;;0.79;100.00;100311.80;10265867;85;21077;-76
2021/01/09 05:19:52;;;;;;;99.83;36.23;;;;;;;0.70;100.00;100320.41;10263583;86;21211;-76
2021/01/09 05:34:56;;;;;;;98.78;33.90;;;;;;;0.69;100.00;100329.92;10267224;86;21538;-76
2021/01/09 05:50:01;;;;;;;105.67;37.38;;;;;;;0.67;100.00;100326.55;10268551;86;21100;-76
2021/01/09 06:05:14;;;;;;;87.33;31.02;;;;;;;0.63;100.00;100336.64;10264003;85;21065;-76
2021/01/09 06:20:20;;;;;;;103.53;33.88;;;;;;;0.73;100.00;100346.12;10263888;85;21890;-76
2021/01/09 06:35:24;;;;;;;95.30;32.48;;;;;;;0.55;100.00;100355.06;10262739;86;21185;-76
2021/01/09 06:50:34;;;;;;;92.00;31.75;;;;;;;0.69;100.00;100363.92;10264954;85;21122;-76
2021/01/09 07:05:44;;;;;;;104.03;32.23;;;;;;;0.74;100.00;100371.02;10267203;85;21267;-76
2021/01/09 07:20:50;;;;;;;114.72;38.02;;;;;;;0.60;100.00;100376.81;10291007;85;21484;-77
2021/01/09 07:35:56;;;;;;;115.50;45.28;;;;;;;0.68;100.00;100391.50;10276673;85;21192;-79
2021/01/09 07:51:02;;;;;;;375.00;148.83;;;;;;;0.51;100.00;100409.50;10263626;85;21045;-78
2021/01/09 08:06:07;;;;;;;320.35;113.80;;;;;;;0.86;100.00;100416.96;10263634;85;21066;-80
2021/01/09 08:21:12;;;;;;;153.65;53.92;;;;;;;0.66;100.00;100423.86;10225338;86;21177;-78
2021/01/09 08:36:16;;;;;;;82.02;29.63;;;;;;;0.62;100.00;100435.66;10165870;86;21149;-77
2021/01/09 08:51:22;;;;;;;151.63;55.65;;;;;;;0.86;100.00;100431.60;10122446;86;21047;-76
2021/01/09 09:06:31;;;;;;;468.50;177.87;;;;;;;0.92;100.00;100447.66;10176303;87;21105;-77
2021/01/09 09:21:41;;;;;;;46.33;19.45;;;;;;;0.94;100.00;100449.73;10216008;86;21035;-76
2021/01/09 10:08:55;;;;;;;146.87;66.53;;;;;;;1.53;100.00;100441.02;11197309;77;22185;-77
2021/01/09 10:24:01;;;;;;;109.27;45.23;;;;;;;1.63;100.00;100443.55;10998713;80;21183;-78
2021/01/09 10:39:09;;;;;;;162.93;61.97;;;;;;;1.47;100.00;100433.92;10625973;80;21640;-79
2021/01/09 10:54:14;;;;;;;191.03;69.95;;;;;;;1.48;100.00;100439.48;10503881;83;21173;-80
2021/01/09 11:09:19;;;;;;;327.73;119.00;;;;;;;1.36;100.00;100441.81;10724077;81;21166;-77
2021/01/09 11:24:24;;;;;;;121.87;49.15;;;;;;;1.37;100.00;100443.02;10500651;81;21199;-79
2021/01/09 11:39:29;;;;;;;317.25;135.52;;;;;;;1.18;100.00;100451.28;10863013;79;21147;-81
2021/01/09 11:54:34;;;;;;;86.37;36.65;;;;;;;1.19;100.00;100447.77;10598536;81;21178;-79
2021/01/09 12:09:38;;;;;;;85.22;28.90;;;;;;;1.27;100.00;100443.09;10786109;80;21166;-79
2021/01/09 12:24:43;;;;;;;188.47;69.67;;;;;;;1.15;100.00;100445.80;10776087;78;21172;-77
2021/01/09 12:39:47;;;;;;;279.95;104.72;;;;;;;1.32;100.00;100454.06;10465081;79;21587;-75
2021/01/09 12:54:52;;;;;;;145.57;60.58;;;;;;;1.13;100.00;100466.98;10658233;78;21956;-79
2021/01/09 13:09:57;;;;;;;73.28;34.23;;;;;;;0.99;100.00;100467.63;10654657;80;21659;-83
2021/01/09 13:25:02;;;;;;;82.12;44.65;;;;;;;1.01;100.00;100477.42;10581530;82;21573;-84
2021/01/09 13:40:09;;;;;;;54.98;25.27;;;;;;;0.76;100.00;100488.84;10581055;82;21152;-78
2021/01/09 13:55:14;;;;;;;107.37;40.98;;;;;;;0.89;100.00;100494.77;10571187;82;21212;-78
2021/01/09 14:10:22;;;;;;;83.90;29.25;;;;;;;0.91;100.00;100499.41;10497339;82;21162;-79
2021/01/09 14:25:24;;;;;;;197.47;64.13;;;;;;;0.93;100.00;100506.64;10338258;85;22271;-85
2021/01/09 14:40:28;;;;;;;169.75;65.95;;;;;;;0.90;100.00;100520.97;10153709;85;21199;-81
2021/01/09 14:55:34;;;;;;;89.60;39.65;;;;;;;1.09;100.00;100533.46;10208497;80;21605;-80
2021/01/09 15:10:39;;;;;;;248.00;111.42;;;;;;;0.89;100.00;100550.31;10391437;83;21174;-88
2021/01/09 15:25:43;;;;;;;242.47;99.05;;;;;;;0.78;100.00;100558.50;10426224;83;21179;-83
2021/01/09 15:40:47;;;;;;;45.08;24.43;;;;;;;0.96;100.00;100576.25;10413729;80;21138;-80
2021/01/09 15:56:02;;;;;;;56.92;27.07;;;;;;;1.02;100.00;100594.52;10702054;78;21631;-82
2021/01/09 16:11:13;;;;;;;105.97;42.23;;;;;;;1.02;100.00;100594.52;10526175;81;21124;-79
2021/01/09 16:26:26;;;;;;;53.70;26.35;;;;;;;1.03;100.00;100601.38;10597106;79;21205;-79
2021/01/09 16:41:27;;;;;;;51.55;23.22;;;;;;;1.02;100.00;100616.05;10766706;81;21166;-80
2021/01/09 16:56:34;;;;;;;;;;;;;;;1.01;100.00;100623.41;10772575;81;21187;-82
2021/01/09 17:11:40;;;;;;;53.42;22.60;;;;;;;0.84;100.00;100621.53;10760327;81;20208;-81
2021/01/09 17:26:48;;;;;;;91.77;43.17;;;;;;;0.86;100.00;100640.84;10764420;80;21155;-83
2021/01/09 17:41:55;;;;;;;101.78;44.15;;;;;;;0.97;100.00;100643.82;10782758;80;21178;-80
2021/01/09 17:56:59;;;;;;;158.40;61.25;;;;;;;0.98;100.00;100659.72;10824980;80;21147;-83
2021/01/09 18:12:04;;;;;;;492.72;198.15;;;;;;;1.07;100.00;100667.08;10765279;79;21161;-83
2021/01/09 18:27:08;;;;;;;212.02;94.15;;;;;;;1.15;100.00;100673.22;10549451;80;21980;-84
2021/01/09 18:42:13;;;;;;;141.75;64.72;;;;;;;0.99;100.00;100685.95;10581353;80;21206;-80
2021/01/09 18:57:18;;;;;;;60.15;30.95;;;;;;;1.06;100.00;100691.23;10974397;78;21132;-80
2021/01/09 19:12:22;;;;;;;189.47;80.92;;;;;;;1.16;100.00;100696.41;10979047;80;21135;-80
2021/01/09 19:27:29;;;;;;;400.27;141.75;;;;;;;1.04;100.00;100714.99;10987431;80;21124;-80
2021/01/09 19:42:33;;;;;;;218.97;92.50;;;;;;;0.97;100.00;100716.17;10982116;80;21128;-79
2021/01/09 19:57:39;;;;;;;125.93;50.93;;;;;;;1.10;100.00;100729.42;10965543;80;21136;-80
2021/01/09 20:12:44;;;;;;;194.30;69.20;;;;;;;1.19;100.00;100753.59;10956528;80;21163;-80
2021/01/09 20:27:49;;;;;;;110.90;40.90;;;;;;;1.19;100.00;100753.59;10571470;84;21215;-79
2021/01/09 20:42:54;;;;;;;155.37;51.37;;;;;;;1.15;100.00;100759.80;10968706;80;21140;-80
2021/01/09 20:57:58;;;;;;;420.73;127.00;;;;;;;1.11;100.00;100768.13;10940350;80;21198;-88
2021/01/09 21:13:03;;;;;;;310.95;91.20;;;;;;;1.07;100.00;100774.33;10476602;84;21207;-83
2021/01/09 21:28:07;;;;;;;448.58;124.07;;;;;;;0.86;100.00;100778.61;10881164;80;21154;-82
2021/01/09 21:43:12;;;;;;;172.75;60.08;;;;;;;0.77;100.00;100792.72;10465570;84;21262;-82
2021/01/09 21:58:17;;;;;;;119.45;43.95;;;;;;;0.88;100.00;100805.67;10928951;80;21183;-84
2021/01/09 22:13:21;;;;;;;56.45;27.82;;;;;;;0.95;100.00;100815.70;10947233;80;21622;-83
2021/01/09 22:28:26;;;;;;;41.88;16.77;;;;;;;0.88;100.00;100822.00;10946782;80;21208;-83
2021/01/09 22:43:31;;;;;;;58.83;24.15;;;;;;;0.76;100.00;100821.20;10948687;80;21183;-81
2021/01/09 22:58:35;;;;;;;49.50;20.32;;;;;;;0.59;100.00;100831.70;10997996;80;21147;-81
2021/01/09 23:13:39;;;;;;;74.45;28.42;;;;;;;0.43;100.00;100836.60;11011729;80;21147;-82
2021/01/09 23:28:43;;;;;;;56.85;21.73;;;;;;;0.25;100.00;100842.01;10979794;79;21159;-81
2021/01/09 23:43:47;;;;;;;81.10;32.15;;;;;;;0.25;100.00;100839.86;10994916;79;21185;-83
2021/01/09 23:58:54;;;;;;;69.20;29.95;;;;;;;0.21;100.00;100844.31;10662946;83;21211;-82
